sensor_id;sensor_type;location;lat;lon;timestamp;temperature;humidity
35240;DHT22;21376;50.954;4.716;2022-11-04T00:02:02;9.60;99.90
35240;DHT22;21376;50.954;4.716;2022-11-04T00:07:19;9.50;99.90
35240;DHT22;21376;50.954;4.716;2022-11-04T00:10:09;9.50;99.90
35240;DHT22;21376;50.954;4.716;2022-11-04T00:15:25;9.40;99.90
35240;DHT22;21376;50.954;4.716;2022-11-04T00:18:11;9.40;99.90
35240;DHT22;21376;50.954;4.716;2022-11-04T00:20:38;9.30;99.90
35240;DHT22;21376;50.954;4.716;2022-11-04T00:23:26;9.40;99.90
35240;DHT22;21376;50.954;4.716;2022-11-04T00:29:01;9.30;99.90
35240;DHT22;21376;50.954;4.716;2022-11-04T00:31:30;9.20;99.90
35240;DHT22;21376;50.954;4.716;2022-11-04T00:34:24;9.20;99.90
35240;DHT22;21376;50.954;4.716;2022-11-04T00:36:52;9.10;99.90
35240;DHT22;21376;50.954;4.716;2022-11-04T00:39:18;9.10;99.90
35240;DHT22;21376;50.954;4.716;2022-11-04T00:41:45;9.20;99.90
35240;DHT22;21376;50.954;4.716;2022-11-04T00:47:14;9.20;99.90
35240;DHT22;21376;50.954;4.716;2022-11-04T00:49:43;9.20;99.90
35240;DHT22;21376;50.954;4.716;2022-11-04T00:54:37;9.10;99.90
35240;DHT22;21376;50.954;4.716;2022-11-04T01:00:07;9.00;99.90
35240;DHT22;21376;50.954;4.716;2022-11-04T01:02:35;9.20;99.90
35240;DHT22;21376;50.954;4.716;2022-11-04T01:07:33;9.20;99.90
35240;DHT22;21376;50.954;4.716;2022-11-04T01:10:14;8.90;99.90
35240;DHT22;21376;50.954;4.716;2022-11-04T01:12:43;9.00;99.90
35240;DHT22;21376;50.954;4.716;2022-11-04T01:15:08;9.10;99.90
35240;DHT22;21376;50.954;4.716;2022-11-04T01:17:37;9.10;99.90
35240;DHT22;21376;50.954;4.716;2022-11-04T01:20:04;9.20;99.90
35240;DHT22;21376;50.954;4.716;2022-11-04T01:22:30;9.30;99.90
35240;DHT22;21376;50.954;4.716;2022-11-04T01:24:59;9.40;99.90
35240;DHT22;21376;50.954;4.716;2022-11-04T01:32:39;9.70;99.90
35240;DHT22;21376;50.954;4.716;2022-11-04T01:35:11;9.70;99.90
35240;DHT22;21376;50.954;4.716;2022-11-04T01:37:40;9.60;99.90
35240;DHT22;21376;50.954;4.716;2022-11-04T01:40:05;9.70;99.90
35240;DHT22;21376;50.954;4.716;2022-11-04T01:42:31;9.80;99.90
35240;DHT22;21376;50.954;4.716;2022-11-04T01:45:00;9.60;99.90
35240;DHT22;21376;50.954;4.716;2022-11-04T01:55:47;9.70;99.90
35240;DHT22;21376;50.954;4.716;2022-11-04T01:58:16;9.70;99.90
35240;DHT22;21376;50.954;4.716;2022-11-04T02:00:48;9.70;99.90
35240;DHT22;21376;50.954;4.716;2022-11-04T02:03:18;9.80;99.90
35240;DHT22;21376;50.954;4.716;2022-11-04T02:05:48;9.70;99.90
35240;DHT22;21376;50.954;4.716;2022-11-04T02:13:34;9.30;99.90
35240;DHT22;21376;50.954;4.716;2022-11-04T02:16:13;9.30;99.90
35240;DHT22;21376;50.954;4.716;2022-11-04T02:19:29;9.20;99.90
35240;DHT22;21376;50.954;4.716;2022-11-04T02:40:18;8.90;99.90
35240;DHT22;21376;50.954;4.716;2022-11-04T02:45:17;9.00;99.90
35240;DHT22;21376;50.954;4.716;2022-11-04T02:50:32;9.00;99.90
35240;DHT22;21376;50.954;4.716;2022-11-04T02:56:15;8.80;99.90
35240;DHT22;21376;50.954;4.716;2022-11-04T02:58:51;8.80;99.90
35240;DHT22;21376;50.954;4.716;2022-11-04T03:08:55;9.00;99.90
35240;DHT22;21376;50.954;4.716;2022-11-04T03:14:40;9.20;99.90
35240;DHT22;21376;50.954;4.716;2022-11-04T03:17:26;9.20;99.90
35240;DHT22;21376;50.954;4.716;2022-11-04T03:19:58;9.30;99.90
35240;DHT22;21376;50.954;4.716;2022-11-04T03:25:05;9.50;99.90
35240;DHT22;21376;50.954;4.716;2022-11-04T03:36:08;9.90;99.90
35240;DHT22;21376;50.954;4.716;2022-11-04T03:41:07;9.90;99.90
35240;DHT22;21376;50.954;4.716;2022-11-04T03:49:09;9.90;99.90
35240;DHT22;21376;50.954;4.716;2022-11-04T03:51:36;10.00;99.90
35240;DHT22;21376;50.954;4.716;2022-11-04T03:54:05;9.90;99.90
35240;DHT22;21376;50.954;4.716;2022-11-04T03:56:53;9.90;99.90
35240;DHT22;21376;50.954;4.716;2022-11-04T04:10:59;9.70;99.90
35240;DHT22;21376;50.954;4.716;2022-11-04T04:21:34;9.60;99.90
35240;DHT22;21376;50.954;4.716;2022-11-04T04:24:03;9.90;99.90
35240;DHT22;21376;50.954;4.716;2022-11-04T04:26:48;10.00;99.90
35240;DHT22;21376;50.954;4.716;2022-11-04T04:35:25;10.10;99.90
35240;DHT22;21376;50.954;4.716;2022-11-04T04:44:31;10.10;99.90
35240;DHT22;21376;50.954;4.716;2022-11-04T04:49:54;9.80;99.90
35240;DHT22;21376;50.954;4.716;2022-11-04T04:52:24;9.80;99.90
35240;DHT22;21376;50.954;4.716;2022-11-04T04:54:51;9.60;99.90
35240;DHT22;21376;50.954;4.716;2022-11-04T04:59:47;9.70;99.90
35240;DHT22;21376;50.954;4.716;2022-11-04T05:04:44;9.90;99.90
35240;DHT22;21376;50.954;4.716;2022-11-04T05:07:10;10.10;99.90
35240;DHT22;21376;50.954;4.716;2022-11-04T05:09:39;10.10;99.90
35240;DHT22;21376;50.954;4.716;2022-11-04T05:12:20;10.20;99.90
35240;DHT22;21376;50.954;4.716;2022-11-04T05:14:45;10.30;99.90
35240;DHT22;21376;50.954;4.716;2022-11-04T05:19:47;10.50;99.90
35240;DHT22;21376;50.954;4.716;2022-11-04T05:22:14;10.50;99.90
35240;DHT22;21376;50.954;4.716;2022-11-04T05:24:43;10.40;99.90
35240;DHT22;21376;50.954;4.716;2022-11-04T05:30:11;10.30;99.90
35240;DHT22;21376;50.954;4.716;2022-11-04T05:35:32;10.40;99.90
35240;DHT22;21376;50.954;4.716;2022-11-04T05:38:02;10.30;99.90
35240;DHT22;21376;50.954;4.716;2022-11-04T05:40:33;10.50;99.90
35240;DHT22;21376;50.954;4.716;2022-11-04T05:43:16;10.40;99.90
35240;DHT22;21376;50.954;4.716;2022-11-04T05:45:47;10.60;99.90
35240;DHT22;21376;50.954;4.716;2022-11-04T05:53:05;10.70;99.90
35240;DHT22;21376;50.954;4.716;2022-11-04T05:55:30;10.80;99.90
35240;DHT22;21376;50.954;4.716;2022-11-04T06:00:40;10.80;99.90
35240;DHT22;21376;50.954;4.716;2022-11-04T06:05:39;10.40;99.90
35240;DHT22;21376;50.954;4.716;2022-11-04T06:10:36;10.50;99.90
35240;DHT22;21376;50.954;4.716;2022-11-04T06:13:02;10.50;99.90
35240;DHT22;21376;50.954;4.716;2022-11-04T06:23:16;10.40;99.90
35240;DHT22;21376;50.954;4.716;2022-11-04T06:25:45;10.50;99.90
35240;DHT22;21376;50.954;4.716;2022-11-04T06:28:14;10.60;99.90
35240;DHT22;21376;50.954;4.716;2022-11-04T06:30:42;10.70;99.90
35240;DHT22;21376;50.954;4.716;2022-11-04T06:33:09;10.70;99.90
35240;DHT22;21376;50.954;4.716;2022-11-04T06:35:38;10.70;99.90
35240;DHT22;21376;50.954;4.716;2022-11-04T06:38:05;10.60;99.90
35240;DHT22;21376;50.954;4.716;2022-11-04T06:40:31;10.80;99.90
35240;DHT22;21376;50.954;4.716;2022-11-04T06:45:58;10.70;99.90
35240;DHT22;21376;50.954;4.716;2022-11-04T06:51:02;10.80;99.90
35240;DHT22;21376;50.954;4.716;2022-11-04T06:53:27;10.80;99.90
35240;DHT22;21376;50.954;4.716;2022-11-04T06:56:00;10.70;99.90
35240;DHT22;21376;50.954;4.716;2022-11-04T06:58:42;10.40;99.90
35240;DHT22;21376;50.954;4.716;2022-11-04T07:01:14;10.60;99.90
35240;DHT22;21376;50.954;4.716;2022-11-04T07:06:40;10.80;99.90
35240;DHT22;21376;50.954;4.716;2022-11-04T07:09:08;10.80;99.90
35240;DHT22;21376;50.954;4.716;2022-11-04T07:11:34;10.80;99.90
35240;DHT22;21376;50.954;4.716;2022-11-04T07:13:59;11.00;99.90
35240;DHT22;21376;50.954;4.716;2022-11-04T07:16:44;11.00;99.90
35240;DHT22;21376;50.954;4.716;2022-11-04T07:21:41;11.10;99.90
35240;DHT22;21376;50.954;4.716;2022-11-04T07:24:08;11.10;99.90
35240;DHT22;21376;50.954;4.716;2022-11-04T07:26:33;11.00;99.90
35240;DHT22;21376;50.954;4.716;2022-11-04T07:31:33;11.30;99.90
35240;DHT22;21376;50.954;4.716;2022-11-04T07:34:08;11.20;99.90
35240;DHT22;21376;50.954;4.716;2022-11-04T07:36:33;11.30;99.90
35240;DHT22;21376;50.954;4.716;2022-11-04T07:41:31;11.30;99.90
35240;DHT22;21376;50.954;4.716;2022-11-04T07:46:31;11.30;99.90
35240;DHT22;21376;50.954;4.716;2022-11-04T07:48:59;11.20;99.90
35240;DHT22;21376;50.954;4.716;2022-11-04T07:51:26;11.30;99.90
35240;DHT22;21376;50.954;4.716;2022-11-04T07:53:51;11.20;99.90
35240;DHT22;21376;50.954;4.716;2022-11-04T07:56:19;11.30;99.90
35240;DHT22;21376;50.954;4.716;2022-11-04T08:01:18;11.20;99.90
35240;DHT22;21376;50.954;4.716;2022-11-04T08:03:50;11.40;99.90
35240;DHT22;21376;50.954;4.716;2022-11-04T08:08:49;11.30;99.90
35240;DHT22;21376;50.954;4.716;2022-11-04T08:11:21;11.50;99.90
35240;DHT22;21376;50.954;4.716;2022-11-04T08:16:25;11.40;99.90
35240;DHT22;21376;50.954;4.716;2022-11-04T08:18:52;11.70;99.90
35240;DHT22;21376;50.954;4.716;2022-11-04T08:21:18;11.80;99.90
35240;DHT22;21376;50.954;4.716;2022-11-04T08:23:45;11.80;99.90
35240;DHT22;21376;50.954;4.716;2022-11-04T08:28:55;12.00;99.90
35240;DHT22;21376;50.954;4.716;2022-11-04T08:31:27;12.20;99.90
35240;DHT22;21376;50.954;4.716;2022-11-04T08:33:53;12.20;99.90
35240;DHT22;21376;50.954;4.716;2022-11-04T08:36:20;12.10;99.90
35240;DHT22;21376;50.954;4.716;2022-11-04T08:38:49;12.40;99.90
35240;DHT22;21376;50.954;4.716;2022-11-04T08:41:15;12.60;99.90
35240;DHT22;21376;50.954;4.716;2022-11-04T08:46:24;12.90;99.90
35240;DHT22;21376;50.954;4.716;2022-11-04T08:48:51;13.10;99.90
35240;DHT22;21376;50.954;4.716;2022-11-04T08:51:21;13.10;99.90
35240;DHT22;21376;50.954;4.716;2022-11-04T08:54:03;13.20;99.90
35240;DHT22;21376;50.954;4.716;2022-11-04T08:56:35;13.00;99.90
35240;DHT22;21376;50.954;4.716;2022-11-04T09:01:41;12.60;99.90
35240;DHT22;21376;50.954;4.716;2022-11-04T09:04:43;12.80;99.90
35240;DHT22;21376;50.954;4.716;2022-11-04T09:07:05;12.90;99.90
35240;DHT22;21376;50.954;4.716;2022-11-04T09:09:31;12.80;99.90
35240;DHT22;21376;50.954;4.716;2022-11-04T09:14:31;13.00;99.90
35240;DHT22;21376;50.954;4.716;2022-11-04T09:17:00;13.30;99.90
35240;DHT22;21376;50.954;4.716;2022-11-04T09:19:33;13.50;99.90
35240;DHT22;21376;50.954;4.716;2022-11-04T09:22:01;14.00;99.90
35240;DHT22;21376;50.954;4.716;2022-11-04T09:24:33;14.10;99.90
35240;DHT22;21376;50.954;4.716;2022-11-04T09:27:00;14.20;99.90
35240;DHT22;21376;50.954;4.716;2022-11-04T09:29:36;13.70;99.90
35240;DHT22;21376;50.954;4.716;2022-11-04T09:32:02;13.70;99.90
35240;DHT22;21376;50.954;4.716;2022-11-04T09:34:34;14.10;99.90
35240;DHT22;21376;50.954;4.716;2022-11-04T09:37:18;14.40;99.90
35240;DHT22;21376;50.954;4.716;2022-11-04T09:47:19;16.50;99.90
35240;DHT22;21376;50.954;4.716;2022-11-04T09:50:01;16.90;99.90
35240;DHT22;21376;50.954;4.716;2022-11-04T09:52:43;17.00;99.90
35240;DHT22;21376;50.954;4.716;2022-11-04T09:55:20;17.10;99.90
35240;DHT22;21376;50.954;4.716;2022-11-04T10:00:20;16.90;99.90
35240;DHT22;21376;50.954;4.716;2022-11-04T10:08:05;16.30;99.90
35240;DHT22;21376;50.954;4.716;2022-11-04T10:13:17;15.70;99.90
35240;DHT22;21376;50.954;4.716;2022-11-04T10:24:02;15.10;99.90
35240;DHT22;21376;50.954;4.716;2022-11-04T10:26:35;14.80;99.90
35240;DHT22;21376;50.954;4.716;2022-11-04T10:29:03;14.80;99.90
35240;DHT22;21376;50.954;4.716;2022-11-04T10:31:29;14.90;99.90
35240;DHT22;21376;50.954;4.716;2022-11-04T10:33:59;14.80;99.90
35240;DHT22;21376;50.954;4.716;2022-11-04T10:36:29;14.80;99.90
35240;DHT22;21376;50.954;4.716;2022-11-04T10:38:56;14.80;99.90
35240;DHT22;21376;50.954;4.716;2022-11-04T10:41:36;14.70;99.90
35240;DHT22;21376;50.954;4.716;2022-11-04T10:44:06;14.70;99.90
35240;DHT22;21376;50.954;4.716;2022-11-04T10:46:39;14.70;99.90
35240;DHT22;21376;50.954;4.716;2022-11-04T10:49:17;14.70;99.90
35240;DHT22;21376;50.954;4.716;2022-11-04T10:51:50;14.60;99.90
35240;DHT22;21376;50.954;4.716;2022-11-04T10:54:19;14.40;99.90
35240;DHT22;21376;50.954;4.716;2022-11-04T10:56:57;14.20;99.90
35240;DHT22;21376;50.954;4.716;2022-11-04T11:02:09;14.10;99.90
35240;DHT22;21376;50.954;4.716;2022-11-04T11:04:35;14.20;99.90
35240;DHT22;21376;50.954;4.716;2022-11-04T11:07:05;14.10;99.90
35240;DHT22;21376;50.954;4.716;2022-11-04T11:09:54;14.30;99.90
35240;DHT22;21376;50.954;4.716;2022-11-04T11:12:25;14.50;99.90
35240;DHT22;21376;50.954;4.716;2022-11-04T11:14:55;14.40;99.90
35240;DHT22;21376;50.954;4.716;2022-11-04T11:19:59;14.60;99.90
35240;DHT22;21376;50.954;4.716;2022-11-04T11:25:32;15.10;99.90
35240;DHT22;21376;50.954;4.716;2022-11-04T11:30:27;15.50;99.90
35240;DHT22;21376;50.954;4.716;2022-11-04T11:32:55;15.60;99.90
35240;DHT22;21376;50.954;4.716;2022-11-04T11:37:53;15.70;99.90
35240;DHT22;21376;50.954;4.716;2022-11-04T11:40:31;15.90;99.90
35240;DHT22;21376;50.954;4.716;2022-11-04T11:42:59;16.20;99.90
35240;DHT22;21376;50.954;4.716;2022-11-04T11:45:29;16.00;99.90
35240;DHT22;21376;50.954;4.716;2022-11-04T11:47:55;16.30;99.90
35240;DHT22;21376;50.954;4.716;2022-11-04T11:53:28;16.40;99.90
35240;DHT22;21376;50.954;4.716;2022-11-04T11:58:43;16.60;99.90
35240;DHT22;21376;50.954;4.716;2022-11-04T12:09:15;16.30;99.90
35240;DHT22;21376;50.954;4.716;2022-11-04T12:20:28;16.20;99.90
35240;DHT22;21376;50.954;4.716;2022-11-04T12:22:37;16.30;99.90
35240;DHT22;21376;50.954;4.716;2022-11-04T12:25:10;16.80;99.90
35240;DHT22;21376;50.954;4.716;2022-11-04T12:27:50;17.70;99.90
35240;DHT22;21376;50.954;4.716;2022-11-04T12:30:26;17.70;99.90
35240;DHT22;21376;50.954;4.716;2022-11-04T12:35:47;18.30;99.90
35240;DHT22;21376;50.954;4.716;2022-11-04T13:00:14;16.80;99.90
35240;DHT22;21376;50.954;4.716;2022-11-04T13:02:51;16.40;99.90
35240;DHT22;21376;50.954;4.716;2022-11-04T13:13:13;18.30;99.90
35240;DHT22;21376;50.954;4.716;2022-11-04T13:21:35;18.50;99.90
35240;DHT22;21376;50.954;4.716;2022-11-04T13:27:03;17.20;99.90
35240;DHT22;21376;50.954;4.716;2022-11-04T13:29:34;16.40;99.90
35240;DHT22;21376;50.954;4.716;2022-11-04T13:37:43;16.00;99.90
35240;DHT22;21376;50.954;4.716;2022-11-04T13:40:15;15.80;99.90
35240;DHT22;21376;50.954;4.716;2022-11-04T13:45:13;15.40;99.90
35240;DHT22;21376;50.954;4.716;2022-11-04T13:47:48;15.40;99.90
35240;DHT22;21376;50.954;4.716;2022-11-04T13:53:08;14.60;99.90
35240;DHT22;21376;50.954;4.716;2022-11-04T13:55:37;14.50;99.90
35240;DHT22;21376;50.954;4.716;2022-11-04T14:01:16;14.30;99.90
35240;DHT22;21376;50.954;4.716;2022-11-04T14:03:54;14.30;99.90
35240;DHT22;21376;50.954;4.716;2022-11-04T14:14:47;14.40;99.90
35240;DHT22;21376;50.954;4.716;2022-11-04T14:23:19;14.20;99.90
35240;DHT22;21376;50.954;4.716;2022-11-04T14:25:57;13.50;99.90
35240;DHT22;21376;50.954;4.716;2022-11-04T14:28:40;13.10;99.90
35240;DHT22;21376;50.954;4.716;2022-11-04T14:48:46;12.90;99.90
35240;DHT22;21376;50.954;4.716;2022-11-04T14:51:29;12.80;99.90
35240;DHT22;21376;50.954;4.716;2022-11-04T14:56:43;13.10;99.90
35240;DHT22;21376;50.954;4.716;2022-11-04T15:02:23;13.20;99.90
35240;DHT22;21376;50.954;4.716;2022-11-04T15:04:53;13.20;99.90
35240;DHT22;21376;50.954;4.716;2022-11-04T15:07:22;13.20;99.90
35240;DHT22;21376;50.954;4.716;2022-11-04T15:09:51;13.20;99.90
35240;DHT22;21376;50.954;4.716;2022-11-04T15:15:38;13.40;99.90
35240;DHT22;21376;50.954;4.716;2022-11-04T15:18:18;13.40;99.90
35240;DHT22;21376;50.954;4.716;2022-11-04T15:25:57;13.50;99.90
35240;DHT22;21376;50.954;4.716;2022-11-04T15:54:02;12.40;99.90
35240;DHT22;21376;50.954;4.716;2022-11-04T15:56:32;12.30;99.90
35240;DHT22;21376;50.954;4.716;2022-11-04T16:16:35;11.80;99.90
35240;DHT22;21376;50.954;4.716;2022-11-04T16:19:15;11.70;99.90
35240;DHT22;21376;50.954;4.716;2022-11-04T16:21:41;11.70;99.90
35240;DHT22;21376;50.954;4.716;2022-11-04T16:24:20;11.70;99.90
35240;DHT22;21376;50.954;4.716;2022-11-04T16:26:55;11.70;99.90
35240;DHT22;21376;50.954;4.716;2022-11-04T16:29:31;11.80;99.90
35240;DHT22;21376;50.954;4.716;2022-11-04T16:34:58;11.70;99.90
35240;DHT22;21376;50.954;4.716;2022-11-04T16:37:34;11.80;99.90
35240;DHT22;21376;50.954;4.716;2022-11-04T16:40:00;11.70;99.90
35240;DHT22;21376;50.954;4.716;2022-11-04T16:42:25;11.60;99.90
35240;DHT22;21376;50.954;4.716;2022-11-04T16:44:59;11.60;99.90
35240;DHT22;21376;50.954;4.716;2022-11-04T16:53:34;11.60;99.90
35240;DHT22;21376;50.954;4.716;2022-11-04T16:56:00;11.50;99.90
35240;DHT22;21376;50.954;4.716;2022-11-04T16:58:28;11.40;99.90
35240;DHT22;21376;50.954;4.716;2022-11-04T17:00:55;11.00;99.90
35240;DHT22;21376;50.954;4.716;2022-11-04T17:03:35;11.10;99.90
35240;DHT22;21376;50.954;4.716;2022-11-04T17:06:03;11.20;99.90
35240;DHT22;21376;50.954;4.716;2022-11-04T17:08:36;11.30;99.90
35240;DHT22;21376;50.954;4.716;2022-11-04T17:13:47;11.20;99.90
35240;DHT22;21376;50.954;4.716;2022-11-04T17:16:14;11.30;99.90
35240;DHT22;21376;50.954;4.716;2022-11-04T17:18:43;11.30;99.90
35240;DHT22;21376;50.954;4.716;2022-11-04T17:26:54;11.30;99.90
35240;DHT22;21376;50.954;4.716;2022-11-04T17:29:23;11.30;99.90
35240;DHT22;21376;50.954;4.716;2022-11-04T17:31:51;11.20;99.90
35240;DHT22;21376;50.954;4.716;2022-11-04T17:40:48;11.10;99.90
35240;DHT22;21376;50.954;4.716;2022-11-04T17:43:35;10.90;99.90
35240;DHT22;21376;50.954;4.716;2022-11-04T17:52:15;10.80;99.90
35240;DHT22;21376;50.954;4.716;2022-11-04T17:54:44;10.70;99.90
35240;DHT22;21376;50.954;4.716;2022-11-04T17:59:56;10.60;99.90
35240;DHT22;21376;50.954;4.716;2022-11-04T18:02:28;10.70;99.90
35240;DHT22;21376;50.954;4.716;2022-11-04T18:07:25;10.50;99.90
35240;DHT22;21376;50.954;4.716;2022-11-04T18:18:12;10.30;99.90
35240;DHT22;21376;50.954;4.716;2022-11-04T18:20:41;10.30;99.90
35240;DHT22;21376;50.954;4.716;2022-11-04T18:23:10;10.20;99.90
35240;DHT22;21376;50.954;4.716;2022-11-04T18:28:35;10.00;99.90
35240;DHT22;21376;50.954;4.716;2022-11-04T18:36:21;9.60;99.90
35240;DHT22;21376;50.954;4.716;2022-11-04T18:44:19;9.20;99.90
35240;DHT22;21376;50.954;4.716;2022-11-04T18:46:49;9.10;99.90
35240;DHT22;21376;50.954;4.716;2022-11-04T18:52:20;9.00;99.90
35240;DHT22;21376;50.954;4.716;2022-11-04T18:54:49;9.00;99.90
35240;DHT22;21376;50.954;4.716;2022-11-04T18:57:18;9.00;99.90
35240;DHT22;21376;50.954;4.716;2022-11-04T18:59:44;9.00;99.90
35240;DHT22;21376;50.954;4.716;2022-11-04T19:07:34;8.80;99.90
35240;DHT22;21376;50.954;4.716;2022-11-04T19:12:31;8.70;99.90
35240;DHT22;21376;50.954;4.716;2022-11-04T19:23:13;8.60;99.90
35240;DHT22;21376;50.954;4.716;2022-11-04T19:31:13;8.50;99.90
35240;DHT22;21376;50.954;4.716;2022-11-04T19:33:40;8.50;99.90
35240;DHT22;21376;50.954;4.716;2022-11-04T19:36:08;8.50;99.90
35240;DHT22;21376;50.954;4.716;2022-11-04T19:38:35;8.50;99.90
35240;DHT22;21376;50.954;4.716;2022-11-04T19:41:02;8.60;99.90
35240;DHT22;21376;50.954;4.716;2022-11-04T19:43:30;8.60;99.90
35240;DHT22;21376;50.954;4.716;2022-11-04T19:45:58;8.60;99.90
35240;DHT22;21376;50.954;4.716;2022-11-04T19:48:28;8.60;99.90
35240;DHT22;21376;50.954;4.716;2022-11-04T19:51:00;8.70;99.90
35240;DHT22;21376;50.954;4.716;2022-11-04T19:53:25;8.70;99.90
35240;DHT22;21376;50.954;4.716;2022-11-04T19:55:52;8.90;99.90
35240;DHT22;21376;50.954;4.716;2022-11-04T19:58:19;8.80;99.90
35240;DHT22;21376;50.954;4.716;2022-11-04T20:00:45;8.90;99.90
35240;DHT22;21376;50.954;4.716;2022-11-04T20:03:11;8.90;99.90
35240;DHT22;21376;50.954;4.716;2022-11-04T20:05:39;8.80;99.90
35240;DHT22;21376;50.954;4.716;2022-11-04T20:08:07;8.80;99.90
35240;DHT22;21376;50.954;4.716;2022-11-04T20:10:36;8.70;99.90
35240;DHT22;21376;50.954;4.716;2022-11-04T20:13:04;8.70;99.90
35240;DHT22;21376;50.954;4.716;2022-11-04T20:15:51;8.70;99.90
35240;DHT22;21376;50.954;4.716;2022-11-04T20:18:16;8.50;99.90
35240;DHT22;21376;50.954;4.716;2022-11-04T20:20:42;8.50;99.90
35240;DHT22;21376;50.954;4.716;2022-11-04T20:23:07;8.40;99.90
35240;DHT22;21376;50.954;4.716;2022-11-04T20:25:33;8.30;99.90
35240;DHT22;21376;50.954;4.716;2022-11-04T20:28:00;8.30;99.90
35240;DHT22;21376;50.954;4.716;2022-11-04T20:30:26;8.30;99.90
35240;DHT22;21376;50.954;4.716;2022-11-04T20:32:52;8.10;99.90
35240;DHT22;21376;50.954;4.716;2022-11-04T20:35:18;8.10;99.90
35240;DHT22;21376;50.954;4.716;2022-11-04T20:43:07;8.10;99.90
35240;DHT22;21376;50.954;4.716;2022-11-04T20:45:51;8.00;99.90
35240;DHT22;21376;50.954;4.716;2022-11-04T20:48:18;8.00;99.90
35240;DHT22;21376;50.954;4.716;2022-11-04T20:50:44;8.10;99.90
35240;DHT22;21376;50.954;4.716;2022-11-04T20:53:17;8.10;99.90
35240;DHT22;21376;50.954;4.716;2022-11-04T20:55:49;8.10;99.90
35240;DHT22;21376;50.954;4.716;2022-11-04T21:01:15;8.30;99.90
35240;DHT22;21376;50.954;4.716;2022-11-04T21:06:36;8.30;99.90
35240;DHT22;21376;50.954;4.716;2022-11-04T21:09:07;8.40;99.90
35240;DHT22;21376;50.954;4.716;2022-11-04T21:11:48;8.50;99.90
35240;DHT22;21376;50.954;4.716;2022-11-04T21:16:43;8.80;99.90
35240;DHT22;21376;50.954;4.716;2022-11-04T21:19:09;8.80;99.90
35240;DHT22;21376;50.954;4.716;2022-11-04T21:21:40;8.80;99.90
35240;DHT22;21376;50.954;4.716;2022-11-04T21:24:06;8.90;99.90
35240;DHT22;21376;50.954;4.716;2022-11-04T21:26:34;8.80;99.90
35240;DHT22;21376;50.954;4.716;2022-11-04T21:29:02;8.70;99.90
35240;DHT22;21376;50.954;4.716;2022-11-04T21:31:34;8.90;99.90
35240;DHT22;21376;50.954;4.716;2022-11-04T21:34:01;8.80;99.90
35240;DHT22;21376;50.954;4.716;2022-11-04T21:36:40;8.60;99.90
35240;DHT22;21376;50.954;4.716;2022-11-04T21:44:25;8.60;99.90
35240;DHT22;21376;50.954;4.716;2022-11-04T21:46:53;8.60;99.90
35240;DHT22;21376;50.954;4.716;2022-11-04T21:49:22;8.60;99.90
35240;DHT22;21376;50.954;4.716;2022-11-04T21:51:54;8.70;99.90
35240;DHT22;21376;50.954;4.716;2022-11-04T21:56:51;8.80;99.90
35240;DHT22;21376;50.954;4.716;2022-11-04T21:59:17;8.80;99.90
35240;DHT22;21376;50.954;4.716;2022-11-04T22:01:45;8.90;99.90
35240;DHT22;21376;50.954;4.716;2022-11-04T22:04:29;8.80;99.90
35240;DHT22;21376;50.954;4.716;2022-11-04T22:06:55;8.60;99.90
35240;DHT22;21376;50.954;4.716;2022-11-04T22:09:22;8.70;99.90
35240;DHT22;21376;50.954;4.716;2022-11-04T22:11:48;8.70;99.90
35240;DHT22;21376;50.954;4.716;2022-11-04T22:14:25;8.70;99.90
35240;DHT22;21376;50.954;4.716;2022-11-04T22:16:50;8.70;99.90
35240;DHT22;21376;50.954;4.716;2022-11-04T22:19:19;8.60;99.90
35240;DHT22;21376;50.954;4.716;2022-11-04T22:21:48;8.60;99.90
35240;DHT22;21376;50.954;4.716;2022-11-04T22:24:17;8.60;99.90
35240;DHT22;21376;50.954;4.716;2022-11-04T22:26:44;8.70;99.90
35240;DHT22;21376;50.954;4.716;2022-11-04T22:29:14;8.80;99.90
35240;DHT22;21376;50.954;4.716;2022-11-04T22:31:43;8.90;99.90
35240;DHT22;21376;50.954;4.716;2022-11-04T22:34:12;8.90;99.90
35240;DHT22;21376;50.954;4.716;2022-11-04T22:36:41;8.90;99.90
35240;DHT22;21376;50.954;4.716;2022-11-04T22:39:09;8.80;99.90
35240;DHT22;21376;50.954;4.716;2022-11-04T22:41:38;8.80;99.90
35240;DHT22;21376;50.954;4.716;2022-11-04T22:44:10;8.70;99.90
35240;DHT22;21376;50.954;4.716;2022-11-04T22:46:39;8.50;99.90
35240;DHT22;21376;50.954;4.716;2022-11-04T22:52:16;8.10;99.90
35240;DHT22;21376;50.954;4.716;2022-11-04T22:54:45;8.10;99.90
35240;DHT22;21376;50.954;4.716;2022-11-04T22:57:14;8.20;99.90
35240;DHT22;21376;50.954;4.716;2022-11-04T22:59:48;8.10;99.90
35240;DHT22;21376;50.954;4.716;2022-11-04T23:04:46;7.90;99.90
35240;DHT22;21376;50.954;4.716;2022-11-04T23:07:14;7.90;99.90
35240;DHT22;21376;50.954;4.716;2022-11-04T23:09:43;7.80;99.90
35240;DHT22;21376;50.954;4.716;2022-11-04T23:15:20;7.80;99.90
35240;DHT22;21376;50.954;4.716;2022-11-04T23:18:08;7.80;99.90
35240;DHT22;21376;50.954;4.716;2022-11-04T23:20:52;7.70;99.90
35240;DHT22;21376;50.954;4.716;2022-11-04T23:23:44;7.70;99.90
35240;DHT22;21376;50.954;4.716;2022-11-04T23:26:28;7.60;99.90
35240;DHT22;21376;50.954;4.716;2022-11-04T23:29:08;7.50;99.90
35240;DHT22;21376;50.954;4.716;2022-11-04T23:31:55;7.50;99.90
35240;DHT22;21376;50.954;4.716;2022-11-04T23:34:21;7.50;99.90
35240;DHT22;21376;50.954;4.716;2022-11-04T23:37:07;7.50;99.90
35240;DHT22;21376;50.954;4.716;2022-11-04T23:39:44;7.50;99.90
35240;DHT22;21376;50.954;4.716;2022-11-04T23:42:17;7.50;99.90
35240;DHT22;21376;50.954;4.716;2022-11-04T23:44:47;7.40;99.90
35240;DHT22;21376;50.954;4.716;2022-11-04T23:47:40;7.40;99.90
35240;DHT22;21376;50.954;4.716;2022-11-04T23:50:25;7.30;99.90
35240;DHT22;21376;50.954;4.716;2022-11-04T23:53:13;7.20;99.90
35240;DHT22;21376;50.954;4.716;2022-11-04T23:56:04;7.20;99.90
35240;DHT22;21376;50.954;4.716;2022-11-04T23:58:49;7.10;99.90
